Time;durP1;ratioP1;P1;durP2;ratioP2;P2;SDS_P1;SDS_P2;PMS_P1;PMS_P2;Temp;Humidity;BMP_temperature;BMP_pressure;BME280_temperature;BME280_humidity;BME280_pressure;Samples;Min_cycle;Max_cycle;Signal;HPM_P1;HPM_P2
2022/05/18 00:00:27;;;;;;;10.07;5.80;;;19.00;99.90;;;;;;5089245;28;20047;-63
2022/05/18 00:02:54;;;;;;;9.00;5.70;;;18.90;99.90;;;;;;5073456;28;20040;-63
2022/05/18 00:05:20;;;;;;;9.93;5.50;;;18.90;99.90;;;;;;5076515;28;20145;-63
2022/05/18 00:07:46;;;;;;;10.68;5.80;;;18.90;99.90;;;;;;5080864;28;20206;-64
2022/05/18 00:10:11;;;;;;;9.70;5.85;;;18.90;99.90;;;;;;5078039;28;20101;-64
2022/05/18 00:12:43;;;;;;;10.57;5.80;;;18.90;99.90;;;;;;5084963;28;20374;-64
2022/05/18 00:15:09;;;;;;;9.85;6.00;;;18.80;99.90;;;;;;5084548;28;20044;-64
2022/05/18 00:17:35;;;;;;;9.48;5.97;;;18.80;99.90;;;;;;5081543;28;20431;-65
2022/05/18 00:20:01;;;;;;;9.32;6.00;;;18.80;99.90;;;;;;5083446;28;20087;-65
2022/05/18 00:22:26;;;;;;;8.82;5.85;;;18.70;99.90;;;;;;5081298;28;20039;-64
2022/05/18 00:24:52;;;;;;;9.88;5.60;;;18.70;99.90;;;;;;5086562;28;20466;-64
2022/05/18 00:27:17;;;;;;;11.30;6.03;;;18.70;99.90;;;;;;5080622;28;20334;-64
2022/05/18 00:29:43;;;;;;;9.88;5.90;;;18.70;99.90;;;;;;5085256;28;20450;-64
2022/05/18 00:32:09;;;;;;;8.85;6.00;;;18.70;99.90;;;;;;5083734;28;20061;-64
2022/05/18 00:34:34;;;;;;;9.82;5.38;;;18.60;99.90;;;;;;5082330;28;20052;-64
2022/05/18 00:37:00;;;;;;;10.00;5.88;;;18.60;99.90;;;;;;5078675;28;20142;-64
2022/05/18 00:39:25;;;;;;;10.60;5.78;;;18.60;99.90;;;;;;5083738;28;20106;-64
2022/05/18 00:41:51;;;;;;;8.77;5.47;;;18.60;99.90;;;;;;5082161;28;20074;-64
2022/05/18 00:44:16;;;;;;;11.63;6.22;;;18.50;99.90;;;;;;5077764;28;20044;-65
2022/05/18 00:46:42;;;;;;;7.95;5.70;;;18.50;99.90;;;;;;5082411;28;20039;-65
2022/05/18 00:49:08;;;;;;;8.60;5.30;;;18.40;99.90;;;;;;5080219;28;20430;-63
2022/05/18 00:51:54;;;;;;;9.25;5.72;;;18.50;99.90;;;;;;5079394;28;20148;-65
2022/05/18 00:54:25;;;;;;;9.18;5.65;;;18.40;99.90;;;;;;5074889;28;20041;-64
2022/05/18 00:56:59;;;;;;;7.53;5.53;;;18.40;99.90;;;;;;5078313;28;20146;-64
2022/05/18 00:59:31;;;;;;;7.72;5.38;;;18.40;99.90;;;;;;5080799;28;20422;-64
2022/05/18 01:01:59;;;;;;;8.32;5.10;;;18.30;99.90;;;;;;5076188;28;20127;-63
2022/05/18 01:04:26;;;;;;;7.32;5.43;;;18.30;99.90;;;;;;5083236;28;20040;-65
2022/05/18 01:06:59;;;;;;;10.75;5.90;;;18.30;99.90;;;;;;5078523;28;20145;-64
2022/05/18 01:09:28;;;;;;;10.95;6.13;;;18.30;99.90;;;;;;5082331;28;20044;-63
2022/05/18 01:11:54;;;;;;;10.68;5.68;;;18.20;99.90;;;;;;5079052;28;20047;-63
2022/05/18 01:14:27;;;;;;;8.07;6.25;;;18.20;99.90;;;;;;5083381;28;20039;-64
2022/05/18 01:16:54;;;;;;;8.10;5.30;;;18.10;99.90;;;;;;5077295;28;20040;-64
2022/05/18 01:19:40;;;;;;;11.77;6.35;;;18.10;99.90;;;;;;5074302;28;20450;-62
2022/05/18 01:22:27;;;;;;;8.18;5.90;;;18.10;99.90;;;;;;5075183;28;20132;-62
2022/05/18 01:25:22;;;;;;;8.88;6.43;;;18.10;99.90;;;;;;5074605;28;20048;-64
2022/05/18 01:27:48;;;;;;;9.47;5.53;;;18.00;99.90;;;;;;5076728;28;20045;-64
2022/05/18 01:30:14;;;;;;;10.55;5.88;;;18.00;99.90;;;;;;5081864;28;20090;-63
2022/05/18 01:32:44;;;;;;;8.50;6.00;;;18.00;99.90;;;;;;5078389;28;20478;-64
2022/05/18 01:35:13;;;;;;;10.52;5.75;;;17.90;99.90;;;;;;5076945;28;20075;-65
2022/05/18 01:37:39;;;;;;;11.88;6.13;;;17.90;99.90;;;;;;5079092;28;20397;-63
2022/05/18 01:40:12;;;;;;;9.02;5.88;;;17.90;99.90;;;;;;5078574;28;20044;-63
2022/05/18 01:42:46;;;;;;;9.10;5.80;;;17.90;99.90;;;;;;5085201;28;20120;-65
2022/05/18 01:45:12;;;;;;;10.40;6.32;;;17.80;99.90;;;;;;5084263;28;20050;-64
2022/05/18 01:47:39;;;;;;;8.13;6.32;;;17.80;99.90;;;;;;5081124;28;20058;-64
2022/05/18 01:50:09;;;;;;;10.30;6.07;;;17.70;99.90;;;;;;5076535;28;20028;-64
2022/05/18 01:52:35;;;;;;;9.57;6.30;;;17.70;99.90;;;;;;5076247;28;20048;-65
2022/05/18 01:55:01;;;;;;;10.23;6.63;;;17.70;99.90;;;;;;5077184;28;20044;-64
2022/05/18 01:57:27;;;;;;;8.68;6.10;;;17.70;99.90;;;;;;5077840;28;20040;-65
2022/05/18 01:59:52;;;;;;;8.82;6.30;;;17.60;99.90;;;;;;5084545;28;20117;-65
2022/05/18 02:02:18;;;;;;;11.77;6.45;;;17.60;99.90;;;;;;5082145;28;20041;-63
2022/05/18 02:04:44;;;;;;;10.07;6.20;;;17.60;99.90;;;;;;5081387;28;20386;-64
2022/05/18 02:07:11;;;;;;;10.85;7.35;;;17.50;99.90;;;;;;5079619;28;20454;-64
2022/05/18 02:09:37;;;;;;;10.55;6.47;;;17.50;99.90;;;;;;5085454;28;20040;-64
2022/05/18 02:12:04;;;;;;;10.95;6.97;;;17.40;99.90;;;;;;5083844;28;20072;-65
2022/05/18 02:14:30;;;;;;;7.78;6.15;;;17.40;99.90;;;;;;5084482;28;20092;-64
2022/05/18 02:16:56;;;;;;;9.82;6.50;;;17.30;99.90;;;;;;5081399;28;20121;-63
2022/05/18 02:19:21;;;;;;;9.00;6.43;;;17.30;99.90;;;;;;5084242;28;20036;-64
2022/05/18 02:21:47;;;;;;;9.65;6.70;;;17.30;99.90;;;;;;5079858;28;20078;-64
2022/05/18 02:24:13;;;;;;;10.00;6.15;;;17.20;99.90;;;;;;5080166;28;20047;-63
2022/05/18 02:26:38;;;;;;;8.77;6.95;;;17.20;99.90;;;;;;5080648;28;20045;-63
2022/05/18 02:29:05;;;;;;;10.98;6.85;;;17.20;99.90;;;;;;5079475;28;20047;-65
2022/05/18 02:31:31;;;;;;;9.20;6.60;;;17.10;99.90;;;;;;5076791;28;20032;-64
2022/05/18 02:33:56;;;;;;;11.05;6.75;;;17.10;99.90;;;;;;5083886;28;20089;-64
2022/05/18 02:36:22;;;;;;;11.07;7.38;;;17.00;99.90;;;;;;5084458;28;20780;-64
2022/05/18 02:38:48;;;;;;;11.38;7.40;;;17.00;99.90;;;;;;5084495;28;20062;-63
2022/05/18 02:41:13;;;;;;;8.63;6.93;;;16.90;99.90;;;;;;5083789;28;20037;-63
2022/05/18 02:43:39;;;;;;;10.35;6.65;;;16.90;99.90;;;;;;5078530;28;20146;-63
2022/05/18 02:46:22;;;;;;;9.38;7.25;;;16.90;99.90;;;;;;5080969;28;20101;-63
2022/05/18 02:48:51;;;;;;;10.48;6.80;;;16.80;99.90;;;;;;5080483;28;20071;-63
2022/05/18 02:51:16;;;;;;;10.68;6.97;;;16.80;99.90;;;;;;5083574;28;20076;-63
2022/05/18 02:53:42;;;;;;;9.60;6.50;;;16.80;99.90;;;;;;5089769;28;20116;-63
2022/05/18 02:56:13;;;;;;;11.02;7.03;;;16.80;99.90;;;;;;5085809;28;20482;-63
2022/05/18 02:58:48;;;;;;;11.30;7.47;;;16.70;99.90;;;;;;5082282;28;20447;-63
2022/05/18 03:01:19;;;;;;;10.48;7.38;;;16.70;99.90;;;;;;5080053;28;20098;-64
2022/05/18 03:03:45;;;;;;;9.68;7.22;;;16.70;99.90;;;;;;5083233;28;20078;-63
2022/05/18 03:06:13;;;;;;;8.60;6.55;;;16.60;99.90;;;;;;5087217;28;20561;-64
2022/05/18 03:08:41;;;;;;;10.55;7.47;;;16.60;99.90;;;;;;5082132;28;20040;-65
2022/05/18 03:11:07;;;;;;;8.85;7.07;;;16.50;99.90;;;;;;5084372;28;20044;-64
2022/05/18 03:13:33;;;;;;;8.70;6.80;;;16.50;99.90;;;;;;5085017;28;20581;-64
2022/05/18 03:15:58;;;;;;;10.35;7.40;;;16.50;99.90;;;;;;5080151;28;20394;-63
2022/05/18 03:18:24;;;;;;;11.65;7.45;;;16.50;99.90;;;;;;5088282;28;20040;-65
2022/05/18 03:23:35;;;;;;;11.70;7.55;;;16.40;99.90;;;;;;5076724;28;20050;-64
2022/05/18 03:26:08;;;;;;;10.38;7.60;;;16.30;99.90;;;;;;5086057;28;20039;-65
2022/05/18 03:28:35;;;;;;;12.23;8.35;;;16.30;99.90;;;;;;5086929;28;20048;-64
2022/05/18 03:31:03;;;;;;;10.18;7.65;;;16.30;99.90;;;;;;5084159;28;20059;-66
2022/05/18 03:33:29;;;;;;;10.32;8.18;;;16.30;99.90;;;;;;5081475;28;20040;-63
2022/05/18 03:35:54;;;;;;;11.27;7.57;;;16.30;99.90;;;;;;5086286;28;20060;-64
2022/05/18 03:38:20;;;;;;;10.23;8.23;;;16.30;99.90;;;;;;5082498;28;20196;-64
2022/05/18 03:40:46;;;;;;;9.82;7.78;;;16.30;99.90;;;;;;5084350;28;20048;-65
2022/05/18 03:43:12;;;;;;;12.77;8.18;;;16.20;99.90;;;;;;5087730;28;20355;-64
2022/05/18 03:45:38;;;;;;;11.00;7.63;;;16.30;99.90;;;;;;5087112;28;20119;-65
2022/05/18 03:48:08;;;;;;;9.95;7.88;;;16.20;99.90;;;;;;5085557;28;20052;-64
2022/05/18 03:50:36;;;;;;;9.23;7.10;;;16.20;99.90;;;;;;5084591;28;20111;-64
2022/05/18 03:53:03;;;;;;;10.02;7.10;;;16.20;99.90;;;;;;5076706;28;20032;-64
2022/05/18 03:55:29;;;;;;;11.93;8.10;;;16.20;99.90;;;;;;5086064;28;20043;-64
2022/05/18 03:57:55;;;;;;;11.07;7.30;;;16.20;99.90;;;;;;5084622;28;20052;-64
2022/05/18 04:00:21;;;;;;;12.18;8.25;;;16.10;99.90;;;;;;5085600;28;20143;-65
2022/05/18 04:02:50;;;;;;;10.60;7.47;;;16.10;99.90;;;;;;5083719;28;20044;-64
2022/05/18 04:05:17;;;;;;;10.10;8.07;;;16.20;99.90;;;;;;5086531;28;20187;-64
2022/05/18 04:07:43;;;;;;;11.63;8.15;;;16.20;99.90;;;;;;5079042;28;20436;-64
2022/05/18 04:10:09;;;;;;;9.85;7.45;;;16.20;99.90;;;;;;5080115;28;20098;-64
2022/05/18 04:12:35;;;;;;;12.07;8.23;;;16.20;99.90;;;;;;5083168;28;20374;-64
2022/05/18 04:15:02;;;;;;;10.13;7.63;;;16.30;99.90;;;;;;5089279;28;20054;-64
2022/05/18 04:17:28;;;;;;;10.32;8.30;;;16.40;99.90;;;;;;5086203;28;20135;-64
2022/05/18 04:19:55;;;;;;;10.20;7.78;;;16.40;99.90;;;;;;5088732;28;20118;-65
2022/05/18 04:22:21;;;;;;;10.57;8.15;;;16.50;99.90;;;;;;5087899;28;20168;-65
2022/05/18 04:24:47;;;;;;;12.82;8.45;;;16.60;99.90;;;;;;5074219;28;20052;-64
2022/05/18 04:27:12;;;;;;;9.75;7.78;;;16.70;99.90;;;;;;5080389;28;20055;-64
2022/05/18 04:29:38;;;;;;;11.15;8.43;;;16.70;99.90;;;;;;5081906;28;20168;-65
2022/05/18 04:32:07;;;;;;;10.95;8.02;;;16.80;99.90;;;;;;5077659;28;20450;-64
2022/05/18 04:34:33;;;;;;;11.98;8.98;;;16.90;99.90;;;;;;5080061;28;20052;-65
2022/05/18 04:36:59;;;;;;;12.32;8.57;;;17.00;99.90;;;;;;5081012;28;22429;-67
2022/05/18 04:39:24;;;;;;;10.95;8.48;;;17.00;99.90;;;;;;5078564;28;20050;-64
2022/05/18 04:41:50;;;;;;;10.45;8.90;;;17.10;99.90;;;;;;5079709;28;20050;-64
2022/05/18 04:44:16;;;;;;;11.10;8.23;;;17.20;99.90;;;;;;5081984;28;20131;-64
2022/05/18 04:46:41;;;;;;;10.60;8.25;;;17.40;99.90;;;;;;5081161;28;20039;-65
2022/05/18 04:49:09;;;;;;;11.40;8.07;;;17.50;99.90;;;;;;5082305;28;20043;-66
2022/05/18 04:51:35;;;;;;;11.57;8.52;;;17.70;99.90;;;;;;5075726;28;20047;-64
2022/05/18 04:54:01;;;;;;;11.75;8.40;;;17.90;99.90;;;;;;5084037;28;20054;-64
2022/05/18 04:56:26;;;;;;;13.88;9.00;;;18.00;99.90;;;;;;5089014;28;20059;-64
2022/05/18 04:58:53;;;;;;;10.40;8.00;;;18.20;99.90;;;;;;5082991;28;20048;-65
2022/05/18 05:01:18;;;;;;;14.00;8.60;;;18.30;99.90;;;;;;5082161;28;20044;-64
2022/05/18 05:03:44;;;;;;;11.18;8.27;;;18.40;99.90;;;;;;5082934;28;20040;-64
2022/05/18 05:06:10;;;;;;;11.80;8.73;;;18.50;99.90;;;;;;5080804;28;20067;-66
2022/05/18 05:08:37;;;;;;;9.52;8.00;;;18.60;99.90;;;;;;5080559;28;20071;-65
2022/05/18 05:11:05;;;;;;;10.70;8.45;;;18.80;99.90;;;;;;5076053;28;20105;-64
2022/05/18 05:13:31;;;;;;;13.20;9.00;;;18.80;99.90;;;;;;5085948;28;20070;-67
2022/05/18 05:16:05;;;;;;;10.80;8.68;;;18.90;99.90;;;;;;5086743;28;20494;-64
2022/05/18 05:18:31;;;;;;;11.13;8.10;;;19.00;99.90;;;;;;5087484;28;20074;-64
2022/05/18 05:20:56;;;;;;;11.52;8.40;;;19.00;99.90;;;;;;5085393;28;20446;-65
2022/05/18 05:23:24;;;;;;;11.13;9.27;;;19.10;99.90;;;;;;5082413;28;20071;-68
2022/05/18 05:25:53;;;;;;;10.88;8.57;;;19.20;99.90;;;;;;5077348;28;20059;-67
2022/05/18 05:28:19;;;;;;;11.73;8.85;;;19.30;99.90;;;;;;5080218;28;20134;-65
2022/05/18 05:30:44;;;;;;;9.85;7.22;;;19.40;99.90;;;;;;5080192;28;20473;-64
2022/05/18 05:33:11;;;;;;;10.63;8.02;;;19.50;99.90;;;;;;5081910;28;20043;-64
2022/05/18 05:35:40;;;;;;;9.73;8.10;;;19.70;99.90;;;;;;5081214;28;20048;-64
2022/05/18 05:38:06;;;;;;;11.00;8.05;;;19.80;99.90;;;;;;5080895;28;20048;-65
2022/05/18 05:40:31;;;;;;;13.02;8.95;;;19.90;99.90;;;;;;5082623;28;20063;-67
2022/05/18 05:42:57;;;;;;;11.50;8.82;;;20.00;99.90;;;;;;5082610;28;20172;-67
2022/05/18 05:45:23;;;;;;;11.38;8.07;;;20.00;99.90;;;;;;5084653;28;20166;-65
2022/05/18 05:47:48;;;;;;;10.30;8.05;;;20.20;99.90;;;;;;5085460;28;20044;-65
2022/05/18 05:50:14;;;;;;;12.27;8.73;;;20.20;99.90;;;;;;5081936;28;20052;-65
2022/05/18 05:52:39;;;;;;;10.40;7.47;;;20.30;99.90;;;;;;5079223;28;20132;-65
2022/05/18 05:55:05;;;;;;;12.00;8.35;;;20.40;99.90;;;;;;5078088;28;20066;-64
2022/05/18 05:57:31;;;;;;;10.05;7.50;;;20.50;99.90;;;;;;5088611;28;20079;-65
2022/05/18 05:59:57;;;;;;;13.15;8.70;;;20.50;99.90;;;;;;5084239;28;20044;-64
2022/05/18 06:02:23;;;;;;;11.75;7.53;;;20.50;99.90;;;;;;5085847;28;20127;-64
2022/05/18 06:04:49;;;;;;;12.68;8.07;;;20.50;99.90;;;;;;5089236;28;20060;-65
2022/05/18 06:07:14;;;;;;;9.15;7.18;;;20.60;99.90;;;;;;5088462;28;20036;-64
2022/05/18 06:09:41;;;;;;;11.90;8.23;;;20.60;99.90;;;;;;5084521;28;20078;-64
2022/05/18 06:12:08;;;;;;;11.82;8.00;;;20.60;99.90;;;;;;5089160;28;20043;-64
2022/05/18 06:14:33;;;;;;;8.50;6.50;;;20.70;99.90;;;;;;5083804;28;20065;-65
2022/05/18 06:16:59;;;;;;;10.35;8.00;;;20.80;99.90;;;;;;5085528;28;20051;-65
2022/05/18 06:19:24;;;;;;;10.15;7.30;;;20.90;99.90;;;;;;5087868;28;20073;-65
2022/05/18 06:21:50;;;;;;;10.43;7.63;;;21.00;99.90;;;;;;5086865;28;20165;-64
2022/05/18 06:24:18;;;;;;;10.40;7.47;;;21.00;99.90;;;;;;5087080;28;20040;-64
2022/05/18 06:26:44;;;;;;;11.32;8.52;;;21.10;99.90;;;;;;5088589;28;20191;-64
2022/05/18 06:29:10;;;;;;;12.82;7.40;;;21.30;99.90;;;;;;5083467;28;20478;-66
2022/05/18 06:31:35;;;;;;;12.13;8.18;;;21.40;99.90;;;;;;5087821;28;20055;-64
2022/05/18 06:34:01;;;;;;;10.82;7.95;;;21.50;99.90;;;;;;5088583;28;20537;-65
2022/05/18 06:36:26;;;;;;;12.95;9.15;;;21.50;99.90;;;;;;5088032;28;20048;-64
2022/05/18 06:38:52;;;;;;;9.55;6.82;;;21.60;99.90;;;;;;5090284;28;20032;-64
2022/05/18 06:41:23;;;;;;;10.38;8.20;;;21.70;99.90;;;;;;5084583;28;20076;-64
2022/05/18 06:43:58;;;;;;;9.18;7.55;;;21.80;99.90;;;;;;5089275;28;20044;-66
2022/05/18 06:46:25;;;;;;;10.77;7.47;;;21.80;99.90;;;;;;5090385;28;20051;-64
2022/05/18 06:48:51;;;;;;;10.15;7.00;;;21.90;99.90;;;;;;5089693;28;20039;-66
2022/05/18 06:51:21;;;;;;;9.88;7.28;;;22.00;99.90;;;;;;5089953;28;20062;-65
2022/05/18 06:53:51;;;;;;;11.82;8.73;;;22.10;99.90;;;;;;5089881;28;20048;-65
2022/05/18 06:56:19;;;;;;;12.05;7.03;;;22.20;99.90;;;;;;5085560;28;20067;-65
2022/05/18 06:58:49;;;;;;;11.35;7.88;;;22.30;99.90;;;;;;5075032;28;20171;-63
2022/05/18 07:01:15;;;;;;;10.70;8.38;;;22.40;99.90;;;;;;5080696;28;20136;-65
2022/05/18 07:03:42;;;;;;;11.60;8.38;;;22.50;99.90;;;;;;5076454;28;20032;-66
2022/05/18 07:06:08;;;;;;;12.27;8.45;;;22.60;99.90;;;;;;5081203;28;20039;-64
2022/05/18 07:08:34;;;;;;;11.23;8.30;;;22.70;99.90;;;;;;5074311;28;20385;-64
2022/05/18 07:10:59;;;;;;;11.85;8.00;;;22.90;99.90;;;;;;5088664;28;20043;-64
2022/05/18 07:13:25;;;;;;;11.43;8.05;;;23.00;99.90;;;;;;5090911;28;20044;-64
2022/05/18 07:15:51;;;;;;;10.02;7.30;;;23.00;99.90;;;;;;5082206;28;20380;-64
2022/05/18 07:18:16;;;;;;;11.27;8.43;;;23.20;99.90;;;;;;5087131;28;20197;-65
2022/05/18 07:20:42;;;;;;;9.43;7.38;;;23.30;99.90;;;;;;5088932;28;20117;-64
2022/05/18 07:23:08;;;;;;;9.90;7.35;;;23.40;99.90;;;;;;5087885;28;20044;-64
2022/05/18 07:25:35;;;;;;;10.98;7.30;;;23.50;99.90;;;;;;5089444;28;20040;-64
2022/05/18 07:28:01;;;;;;;13.25;7.35;;;23.70;99.90;;;;;;5090076;28;20056;-63
2022/05/18 07:30:26;;;;;;;10.93;7.30;;;23.90;99.90;;;;;;5088702;28;20173;-64
2022/05/18 07:32:52;;;;;;;12.20;7.68;;;23.90;99.90;;;;;;5086528;28;20039;-64
2022/05/18 07:35:18;;;;;;;8.45;6.95;;;24.10;99.90;;;;;;5088844;28;20128;-63
2022/05/18 07:37:43;;;;;;;9.27;6.97;;;24.20;99.90;;;;;;5088887;28;20051;-64
2022/05/18 07:40:09;;;;;;;9.15;6.78;;;24.30;99.90;;;;;;5087895;28;20150;-64
2022/05/18 07:42:35;;;;;;;11.15;7.18;;;24.20;99.90;;;;;;5089504;28;20040;-64
2022/05/18 07:45:02;;;;;;;11.43;7.00;;;24.10;99.90;;;;;;5089038;28;20048;-65
2022/05/18 07:47:29;;;;;;;9.88;8.05;;;24.10;99.90;;;;;;5089853;28;20071;-64
2022/05/18 07:49:55;;;;;;;11.50;7.82;;;24.20;99.90;;;;;;5089328;28;20055;-65
2022/05/18 07:52:21;;;;;;;11.50;7.18;;;24.30;99.90;;;;;;5073886;28;20051;-64
2022/05/18 07:54:47;;;;;;;9.82;6.50;;;24.50;99.90;;;;;;5083880;28;20451;-64
2022/05/18 07:57:15;;;;;;;9.90;6.88;;;24.60;99.90;;;;;;5069285;28;20040;-64
2022/05/18 07:59:41;;;;;;;8.48;5.80;;;24.60;99.90;;;;;;5068534;28;20048;-63
2022/05/18 08:02:06;;;;;;;9.02;6.10;;;24.70;99.90;;;;;;5068271;28;20753;-64
2022/05/18 08:04:32;;;;;;;9.05;6.18;;;24.70;99.80;;;;;;5085547;28;20071;-63
2022/05/18 08:06:58;;;;;;;11.30;7.25;;;24.70;99.30;;;;;;5087986;28;20055;-63
2022/05/18 08:09:24;;;;;;;9.68;7.50;;;24.70;99.60;;;;;;5088763;28;20126;-64
2022/05/18 08:17:21;;;;;;;9.02;6.72;;;24.80;99.40;;;;;;5068389;28;20056;-63
2022/05/18 08:19:46;;;;;;;9.80;7.38;;;24.90;99.70;;;;;;5068075;28;20075;-64
2022/05/18 08:22:13;;;;;;;9.68;7.22;;;24.90;99.50;;;;;;5080099;28;20044;-63
2022/05/18 08:24:39;;;;;;;14.05;7.38;;;24.90;98.80;;;;;;5088358;28;20044;-64
2022/05/18 08:27:06;;;;;;;10.57;7.10;;;25.00;98.70;;;;;;5088285;28;20116;-64
2022/05/18 08:29:32;;;;;;;12.43;7.65;;;25.10;98.40;;;;;;5088582;28;20040;-64
2022/05/18 08:31:58;;;;;;;8.27;7.18;;;25.20;98.40;;;;;;5086376;28;20351;-64
2022/05/18 08:34:23;;;;;;;11.73;8.45;;;25.20;98.50;;;;;;5087546;28;20513;-64
2022/05/18 08:36:49;;;;;;;9.82;8.23;;;25.20;98.00;;;;;;5088133;28;20082;-64
2022/05/18 08:39:15;;;;;;;12.55;9.05;;;25.30;98.50;;;;;;5085552;28;20044;-65
2022/05/18 08:41:45;;;;;;;12.07;8.15;;;25.30;98.00;;;;;;5085390;28;20055;-64
2022/05/18 08:44:30;;;;;;;14.40;7.43;;;25.30;97.90;;;;;;5088786;28;20032;-63
2022/05/18 08:47:09;;;;;;;11.18;7.47;;;25.40;97.90;;;;;;5088413;28;20040;-65
2022/05/18 08:49:58;;;;;;;11.32;6.85;;;25.50;97.20;;;;;;5085530;28;20051;-64
2022/05/18 08:52:48;;;;;;;9.30;6.60;;;25.40;96.10;;;;;;5086664;28;20119;-65
2022/05/18 08:55:36;;;;;;;11.10;7.25;;;25.40;93.80;;;;;;5085774;28;20127;-64
2022/05/18 08:58:04;;;;;;;12.68;7.90;;;25.60;93.90;;;;;;5087450;28;20048;-66
2022/05/18 09:00:35;;;;;;;13.20;8.40;;;25.70;94.00;;;;;;5081834;28;20485;-63
2022/05/18 09:03:15;;;;;;;12.10;8.52;;;25.70;93.40;;;;;;5075030;28;20047;-64
2022/05/18 09:05:54;;;;;;;12.35;9.13;;;25.60;93.50;;;;;;5087449;28;20184;-64
2022/05/18 09:08:31;;;;;;;13.25;9.65;;;25.60;93.50;;;;;;5079838;28;20044;-64
2022/05/18 09:11:06;;;;;;;13.50;8.73;;;25.50;91.80;;;;;;5074300;28;20169;-64
2022/05/18 09:13:32;;;;;;;13.50;9.75;;;25.50;93.20;;;;;;5087530;28;20070;-65
2022/05/18 09:16:33;;;;;;;12.93;9.45;;;25.40;93.20;;;;;;5085988;28;20036;-64
2022/05/18 09:19:17;;;;;;;13.85;9.88;;;25.50;91.90;;;;;;5084382;28;20044;-64
2022/05/18 09:22:36;;;;;;;13.13;9.38;;;25.50;92.90;;;;;;5086423;28;20036;-64
2022/05/18 09:25:26;;;;;;;11.75;8.88;;;25.60;92.90;;;;;;5042694;28;20095;-68
2022/05/18 09:28:08;;;;;;;13.60;9.95;;;25.70;92.60;;;;;;5082483;28;20101;-65
2022/05/18 09:30:48;;;;;;;13.95;10.00;;;25.70;92.50;;;;;;5084059;28;20079;-64
2022/05/18 09:33:32;;;;;;;15.73;10.60;;;25.70;91.60;;;;;;5077769;28;20051;-65
2022/05/18 09:36:09;;;;;;;12.65;10.60;;;25.70;92.30;;;;;;5087737;28;20340;-64
2022/05/18 09:39:08;;;;;;;18.60;11.82;;;25.80;92.20;;;;;;5086755;28;20040;-64
2022/05/18 09:41:43;;;;;;;16.35;10.60;;;25.90;91.70;;;;;;5087515;28;20048;-64
2022/05/18 09:44:17;;;;;;;13.25;10.18;;;26.00;91.60;;;;;;5077692;28;20036;-64
2022/05/18 09:46:42;;;;;;;12.67;10.50;;;26.10;92.20;;;;;;5085991;28;20052;-64
2022/05/18 09:49:15;;;;;;;19.25;12.20;;;26.20;92.00;;;;;;5086063;28;20120;-63
2022/05/18 09:51:41;;;;;;;15.75;12.48;;;26.10;91.00;;;;;;5077397;28;20117;-64
2022/05/18 09:54:07;;;;;;;17.58;11.43;;;26.10;90.50;;;;;;5081643;28;20117;-65
2022/05/18 09:56:39;;;;;;;17.23;13.57;;;26.00;90.30;;;;;;5072584;28;20052;-65
2022/05/18 09:59:12;;;;;;;17.10;12.55;;;26.10;91.10;;;;;;5086466;28;20049;-63
2022/05/18 10:07:27;;;;;;;14.60;12.25;;;26.20;90.40;;;;;;5080960;28;20481;-65
2022/05/18 10:10:36;;;;;;;18.50;14.80;;;26.20;91.60;;;;;;5083514;28;20098;-67
2022/05/18 10:13:14;;;;;;;19.45;15.02;;;26.30;91.50;;;;;;5057346;28;20467;-67
2022/05/18 10:15:44;;;;;;;18.52;14.93;;;26.30;92.00;;;;;;5086238;28;20072;-66
2022/05/18 10:18:36;;;;;;;17.08;14.98;;;26.30;92.70;;;;;;5089006;28;20052;-65
2022/05/18 10:21:20;;;;;;;21.20;14.73;;;26.40;92.60;;;;;;5088606;28;20043;-65
2022/05/18 10:23:55;;;;;;;20.60;14.23;;;26.50;92.20;;;;;;5075118;28;20044;-67
2022/05/18 10:26:27;;;;;;;18.02;13.52;;;26.40;92.20;;;;;;5086613;28;20040;-65
2022/05/18 10:29:00;;;;;;;18.33;14.05;;;26.30;92.30;;;;;;5075248;28;20060;-66
2022/05/18 10:31:39;;;;;;;18.67;14.27;;;26.40;91.90;;;;;;5074795;28;20110;-65
2022/05/18 10:34:25;;;;;;;16.08;13.73;;;26.50;92.00;;;;;;5072893;28;20064;-64
2022/05/18 10:36:54;;;;;;;18.98;14.75;;;26.60;91.60;;;;;;5090467;28;20044;-64
2022/05/18 10:39:47;;;;;;;17.95;14.10;;;26.60;92.10;;;;;;5083610;28;20033;-64
2022/05/18 10:42:20;;;;;;;19.55;14.40;;;26.50;92.10;;;;;;5084518;28;20121;-64
2022/05/18 10:44:47;;;;;;;18.97;14.73;;;26.60;91.70;;;;;;5074295;28;20578;-64
2022/05/18 10:47:22;;;;;;;17.67;14.65;;;26.60;91.70;;;;;;5084783;28;20353;-65
2022/05/18 10:49:48;;;;;;;17.23;13.77;;;26.70;90.90;;;;;;5088115;28;20516;-66
2022/05/18 10:52:18;;;;;;;19.65;15.05;;;26.80;91.70;;;;;;5086623;28;20036;-63
2022/05/18 10:54:59;;;;;;;19.27;15.32;;;26.80;91.50;;;;;;5087479;28;20044;-65
2022/05/18 10:57:34;;;;;;;18.38;14.63;;;26.90;91.00;;;;;;5083804;28;20114;-65
2022/05/18 11:00:17;;;;;;;18.35;15.15;;;27.00;91.00;;;;;;5069424;28;20037;-64
2022/05/18 11:02:51;;;;;;;17.83;15.07;;;27.10;91.30;;;;;;5071416;28;20075;-63
2022/05/18 11:05:25;;;;;;;19.88;15.57;;;27.10;91.40;;;;;;5079499;28;20620;-63
2022/05/18 11:07:51;;;;;;;19.10;14.73;;;27.20;91.60;;;;;;5082216;28;20052;-64
2022/05/18 11:10:17;;;;;;;18.75;14.43;;;27.30;91.40;;;;;;5083819;28;20339;-64
2022/05/18 11:13:00;;;;;;;18.77;16.33;;;27.40;91.00;;;;;;5091175;28;20066;-65
2022/05/18 11:15:42;;;;;;;18.02;14.80;;;27.70;91.70;;;;;;5084835;28;20581;-65
2022/05/18 11:18:32;;;;;;;16.45;13.85;;;28.00;90.90;;;;;;5085354;28;20052;-65
2022/05/18 11:21:30;;;;;;;22.95;14.88;;;28.30;90.20;;;;;;5088640;28;20184;-65
2022/05/18 11:24:20;;;;;;;18.50;15.55;;;28.40;88.20;;;;;;5072143;28;20487;-66
2022/05/18 11:27:09;;;;;;;17.33;15.38;;;28.30;85.60;;;;;;5071120;28;20052;-66
2022/05/18 11:30:01;;;;;;;16.05;14.20;;;28.10;86.10;;;;;;5068565;28;20132;-66
2022/05/18 11:32:50;;;;;;;17.10;13.88;;;28.10;85.40;;;;;;5074494;28;20044;-66
2022/05/18 11:35:40;;;;;;;17.52;12.95;;;28.00;86.80;;;;;;5079271;28;20093;-66
2022/05/18 11:38:23;;;;;;;14.98;13.27;;;28.00;86.30;;;;;;5083940;28;20044;-66
2022/05/18 11:41:04;;;;;;;19.90;14.43;;;28.20;88.30;;;;;;5089623;28;20044;-63
2022/05/18 11:43:35;;;;;;;15.30;11.90;;;28.30;86.00;;;;;;5079758;28;20101;-65
2022/05/18 11:46:30;;;;;;;15.98;12.77;;;28.40;86.00;;;;;;5090302;28;20051;-65
2022/05/18 11:49:21;;;;;;;16.25;11.80;;;28.50;85.40;;;;;;5076401;28;20044;-65
2022/05/18 11:52:15;;;;;;;14.65;13.07;;;28.40;84.20;;;;;;5085308;28;20082;-66
2022/05/18 11:55:17;;;;;;;18.98;12.68;;;28.20;84.50;;;;;;5088647;28;20533;-65
2022/05/18 11:57:57;;;;;;;14.35;12.05;;;28.10;85.80;;;;;;5067701;28;20048;-64
2022/05/18 12:00:50;;;;;;;13.52;11.00;;;28.10;86.50;;;;;;5074922;28;20073;-65
2022/05/18 12:03:53;;;;;;;16.60;12.00;;;28.10;86.50;;;;;;5084592;28;20466;-65
2022/05/18 12:06:24;;;;;;;14.50;10.85;;;28.10;85.30;;;;;;5087459;28;20375;-66
2022/05/18 12:09:20;;;;;;;14.65;12.00;;;28.10;87.70;;;;;;5085650;28;20048;-64
2022/05/18 12:12:19;;;;;;;14.77;12.00;;;28.10;85.90;;;;;;5087776;28;20060;-66
2022/05/18 12:15:15;;;;;;;17.73;11.68;;;28.10;87.10;;;;;;5070303;28;20139;-66
2022/05/18 12:17:54;;;;;;;16.50;11.77;;;28.00;86.70;;;;;;5087263;28;20052;-66
2022/05/18 12:20:36;;;;;;;16.52;10.55;;;27.90;87.20;;;;;;5067835;28;20044;-65
2022/05/18 12:23:06;;;;;;;15.20;11.23;;;28.00;87.40;;;;;;5076374;28;20123;-68
2022/05/18 12:25:33;;;;;;;16.70;12.30;;;28.00;87.90;;;;;;5086922;28;20130;-66
2022/05/18 12:28:03;;;;;;;15.68;11.23;;;28.00;87.70;;;;;;5069025;28;20501;-66
2022/05/18 12:30:33;;;;;;;15.75;10.57;;;28.10;87.00;;;;;;5089274;28;20052;-66
2022/05/18 12:33:01;;;;;;;14.20;11.75;;;28.30;86.80;;;;;;5084660;28;20058;-66
2022/05/18 12:35:54;;;;;;;13.60;11.30;;;28.40;85.80;;;;;;5085829;28;20071;-67
2022/05/18 12:38:36;;;;;;;14.23;10.77;;;28.40;84.80;;;;;;5082182;28;20055;-66
2022/05/18 12:41:09;;;;;;;14.48;11.10;;;28.40;85.20;;;;;;5087069;28;20615;-67
2022/05/18 12:43:44;;;;;;;10.82;9.35;;;28.40;84.10;;;;;;5082783;28;20093;-65
2022/05/18 12:46:15;;;;;;;12.95;9.43;;;28.40;85.20;;;;;;5081590;28;20366;-68
2022/05/18 12:48:54;;;;;;;12.65;9.98;;;28.20;85.90;;;;;;5087411;28;20123;-66
2022/05/18 12:51:25;;;;;;;14.38;9.77;;;28.30;85.00;;;;;;5085814;28;20046;-67
2022/05/18 12:53:51;;;;;;;14.85;9.50;;;28.00;84.70;;;;;;5078624;28;20056;-65
2022/05/18 12:56:25;;;;;;;14.00;9.35;;;27.90;84.70;;;;;;5082636;28;20067;-66
2022/05/18 12:58:53;;;;;;;14.18;10.30;;;27.90;83.80;;;;;;5087291;28;20052;-65
2022/05/18 13:01:21;;;;;;;17.33;12.50;;;28.00;83.60;;;;;;5086757;28;20143;-65
2022/05/18 13:04:07;;;;;;;17.50;13.88;;;28.20;84.30;;;;;;5087362;28;20071;-66
2022/05/18 13:06:36;;;;;;;19.08;13.38;;;28.10;85.10;;;;;;5078335;28;20040;-67
2022/05/18 13:09:22;;;;;;;18.20;13.48;;;28.10;84.40;;;;;;5085640;28;20167;-68